createdAt,value
2023-01-04T00:02:22.906Z,100637.47
2023-01-04T00:04:49.262Z,100626.44
2023-01-04T00:07:15.781Z,100640.63
2023-01-04T00:09:42.163Z,100636.41
2023-01-04T00:12:08.646Z,100643.44
2023-01-04T00:14:34.977Z,100627.19
2023-01-04T00:17:01.290Z,100635.28
2023-01-04T00:19:27.597Z,100637.47
2023-01-04T00:21:53.899Z,100622.00
2023-01-04T00:24:20.319Z,100617.78
2023-01-04T00:26:46.785Z,100619.81
2023-01-04T00:29:13.857Z,100620.41
2023-01-04T00:31:41.269Z,100615.28
2023-01-04T00:34:10.660Z,100614.50
2023-01-04T00:36:37.091Z,100607.84
2023-01-04T00:39:14.297Z,100604.09
2023-01-04T00:42:00.525Z,100598.41
2023-01-04T00:44:28.048Z,100588.84
2023-01-04T00:46:54.482Z,100586.59
2023-01-04T00:49:21.179Z,100575.09
2023-01-04T00:51:47.526Z,100560.53
2023-01-04T00:54:15.747Z,100562.63
2023-01-04T00:56:43.061Z,100560.13
2023-01-04T00:59:11.672Z,100555.97
2023-01-04T01:01:39.542Z,100557.13
2023-01-04T01:04:06.167Z,100555.41
2023-01-04T01:06:33.921Z,100550.81
2023-01-04T01:09:00.679Z,100520.28
2023-01-04T01:11:27.502Z,100527.03
2023-01-04T01:13:54.134Z,100525.97
2023-01-04T01:16:44.325Z,100517.66
2023-01-04T01:19:08.983Z,100516.47
2023-01-04T01:21:35.367Z,100506.88
2023-01-04T01:24:01.819Z,100511.84
2023-01-04T01:26:28.157Z,100501.69
2023-01-04T01:28:54.644Z,100500.75
2023-01-04T01:31:23.859Z,100500.38
2023-01-04T01:33:51.761Z,100485.53
2023-01-04T01:36:19.569Z,100493.66
2023-01-04T01:38:46.133Z,100480.34
2023-01-04T01:41:17.900Z,100484.13
2023-01-04T01:44:02.454Z,100482.88
2023-01-04T01:46:50.299Z,100483.53
2023-01-04T01:49:27.219Z,100490.31
2023-01-04T01:51:55.950Z,100484.81
2023-01-04T01:54:26.937Z,100486.97
2023-01-04T01:56:56.227Z,100479.84
2023-01-04T01:59:22.796Z,100477.13
2023-01-04T02:01:49.385Z,100462.47
2023-01-04T02:04:17.094Z,100458.97
2023-01-04T02:06:48.263Z,100462.38
2023-01-04T02:09:15.685Z,100455.72
2023-01-04T02:11:42.003Z,100454.47
2023-01-04T02:14:27.553Z,100465.94
2023-01-04T02:17:16.257Z,100466.78
2023-01-04T02:20:13.396Z,100474.25
2023-01-04T02:22:54.727Z,100462.91
2023-01-04T02:25:24.042Z,100464.50
2023-01-04T02:28:27.969Z,100462.75
2023-01-04T02:31:21.543Z,100460.19
2023-01-04T02:34:19.145Z,100460.69
2023-01-04T02:37:28.870Z,100449.19
2023-01-04T02:40:07.083Z,100446.38
2023-01-04T02:43:16.491Z,100440.00
2023-01-04T02:45:53.295Z,100436.25
2023-01-04T02:48:38.277Z,100422.31
2023-01-04T02:51:04.728Z,100423.50
2023-01-04T02:53:41.757Z,100409.63
2023-01-04T02:56:17.373Z,100428.19
2023-01-04T02:59:03.237Z,100422.75
2023-01-04T03:02:16.114Z,100416.13
2023-01-04T03:05:34.530Z,100408.69
2023-01-04T03:08:33.406Z,100404.16
2023-01-04T03:11:32.729Z,100401.25
2023-01-04T03:14:32.165Z,100402.97
2023-01-04T03:17:04.365Z,100397.53
2023-01-04T03:19:50.315Z,100390.31
2023-01-04T03:22:38.397Z,100386.00
2023-01-04T03:25:27.128Z,100377.78
2023-01-04T03:28:13.879Z,100369.38
2023-01-04T03:31:13.610Z,100352.41
2023-01-04T03:33:58.490Z,100344.41
2023-01-04T03:36:29.678Z,100354.00
2023-01-04T03:39:18.651Z,100340.88
2023-01-04T03:42:08.430Z,100341.63
2023-01-04T03:45:09.535Z,100336.38
2023-01-04T03:48:07.579Z,100319.88
2023-01-04T03:50:42.309Z,100319.66
2023-01-04T03:53:09.153Z,100310.22
2023-01-04T03:55:38.980Z,100311.78
2023-01-04T03:58:05.308Z,100294.53
2023-01-04T04:00:34.104Z,100290.88
2023-01-04T04:03:07.183Z,100294.19
2023-01-04T04:05:58.885Z,100300.13
2023-01-04T04:08:28.600Z,100298.31
2023-01-04T04:10:56.910Z,100293.53
2023-01-04T04:13:24.197Z,100286.16
2023-01-04T04:15:53.272Z,100283.16
2023-01-04T04:18:19.656Z,100281.66
2023-01-04T04:20:45.960Z,100278.00
2023-01-04T04:23:12.256Z,100261.28
2023-01-04T04:25:38.626Z,100268.56
2023-01-04T04:28:06.064Z,100265.53
2023-01-04T04:30:32.435Z,100270.63
2023-01-04T04:32:58.733Z,100263.75
2023-01-04T04:35:25.093Z,100266.38
2023-01-04T04:37:51.386Z,100261.28
2023-01-04T04:40:36.361Z,100251.16
2023-01-04T04:43:02.683Z,100257.63
2023-01-04T04:45:29.020Z,100259.06
2023-01-04T04:47:55.328Z,100248.19
2023-01-04T04:50:21.630Z,100244.63
2023-01-04T04:52:52.621Z,100246.66
2023-01-04T04:55:22.560Z,100254.91
2023-01-04T04:57:48.916Z,100242.16
2023-01-04T05:00:15.510Z,100243.09
2023-01-04T05:02:41.920Z,100241.91
2023-01-04T05:05:08.989Z,100228.59
2023-01-04T05:07:35.466Z,100242.56
2023-01-04T05:10:01.863Z,100247.66
2023-01-04T05:12:46.956Z,100236.38
2023-01-04T05:15:13.332Z,100234.44
2023-01-04T05:17:39.637Z,100230.94
2023-01-04T05:20:06.458Z,100216.03
2023-01-04T05:22:32.806Z,100208.91
2023-01-04T05:24:59.142Z,100203.31
2023-01-04T05:27:25.478Z,100199.97
2023-01-04T05:30:10.503Z,100205.06
2023-01-04T05:32:37.414Z,100200.84
2023-01-04T05:35:03.953Z,100181.97
2023-01-04T05:37:30.299Z,100187.25
2023-01-04T05:39:56.603Z,100190.97
2023-01-04T05:42:25.805Z,100203.59
2023-01-04T05:44:53.218Z,100210.13
2023-01-04T05:47:19.742Z,100209.06
2023-01-04T05:49:46.127Z,100206.00
2023-01-04T05:52:12.610Z,100193.09
2023-01-04T05:54:39.201Z,100189.53
2023-01-04T05:57:05.826Z,100173.09
2023-01-04T05:59:37.266Z,100193.97
2023-01-04T06:02:14.087Z,100205.00
2023-01-04T06:04:40.527Z,100187.06
2023-01-04T06:07:06.843Z,100192.88
2023-01-04T06:09:33.145Z,100173.44
2023-01-04T06:11:59.615Z,100173.31
2023-01-04T06:14:25.943Z,100163.91
2023-01-04T06:16:52.320Z,100158.84
2023-01-04T06:19:18.682Z,100139.66
2023-01-04T06:21:45.025Z,100141.72
2023-01-04T06:24:11.917Z,100138.81
2023-01-04T06:26:38.232Z,100124.06
2023-01-04T06:29:05.146Z,100124.53
2023-01-04T06:31:33.514Z,100126.13
2023-01-04T06:34:00.696Z,100155.09
2023-01-04T06:36:27.194Z,100146.44
2023-01-04T06:38:54.175Z,100154.03
2023-01-04T06:41:20.494Z,100158.13
2023-01-04T06:43:46.799Z,100151.03
2023-01-04T06:46:13.191Z,100148.41
2023-01-04T06:48:39.513Z,100115.22
2023-01-04T06:51:05.899Z,100122.84
2023-01-04T06:53:32.299Z,100129.88
2023-01-04T06:55:58.677Z,100118.41
2023-01-04T06:58:25.250Z,100115.13
2023-01-04T07:00:52.184Z,100113.25
2023-01-04T07:03:18.579Z,100117.91
2023-01-04T07:05:45.214Z,100115.75
2023-01-04T07:08:13.139Z,100107.84
2023-01-04T07:10:39.667Z,100082.56
2023-01-04T07:13:06.153Z,100086.47
2023-01-04T07:15:39.167Z,100096.38
2023-01-04T07:18:07.260Z,100119.31
2023-01-04T07:20:33.597Z,100116.81
2023-01-04T07:22:59.926Z,100129.09
2023-01-04T07:25:26.242Z,100123.47
2023-01-04T07:27:53.534Z,100138.88
2023-01-04T07:30:21.737Z,100145.03
2023-01-04T07:32:49.253Z,100132.66
2023-01-04T07:35:15.555Z,100117.63
2023-01-04T07:37:45.281Z,100132.19
2023-01-04T07:40:11.954Z,100128.16
2023-01-04T07:42:38.380Z,100140.22
2023-01-04T07:45:06.259Z,100142.94
2023-01-04T07:47:33.096Z,100143.88
2023-01-04T07:50:00.214Z,100144.34
2023-01-04T07:52:27.038Z,100149.53
2023-01-04T07:54:53.464Z,100135.03
2023-01-04T07:57:19.821Z,100132.94
2023-01-04T07:59:46.127Z,100116.75
2023-01-04T08:02:13.149Z,100117.13
2023-01-04T08:04:39.654Z,100120.03
2023-01-04T08:07:06.388Z,100103.97
2023-01-04T08:09:32.745Z,100110.16
2023-01-04T08:11:59.024Z,100109.78
2023-01-04T08:14:25.380Z,100119.59
2023-01-04T08:16:51.709Z,100122.50
2023-01-04T08:19:20.365Z,100131.63
2023-01-04T08:21:47.791Z,100131.91
2023-01-04T08:24:16.667Z,100139.72
2023-01-04T08:26:44.346Z,100132.16
2023-01-04T08:29:11.703Z,100133.03
2023-01-04T08:31:39.591Z,100146.22
2023-01-04T08:34:08.264Z,100146.22
2023-01-04T08:36:43.759Z,100144.53
2023-01-04T08:39:10.144Z,100142.81
2023-01-04T08:42:04.778Z,100150.25
2023-01-04T08:44:34.990Z,100139.25
2023-01-04T08:47:01.633Z,100144.13
2023-01-04T08:49:28.064Z,100133.50
2023-01-04T08:51:54.573Z,100132.66
2023-01-04T08:54:22.562Z,100112.50
2023-01-04T08:56:48.842Z,100123.31
2023-01-04T08:59:15.156Z,100121.31
2023-01-04T09:01:41.905Z,100124.19
2023-01-04T09:04:08.436Z,100111.94
2023-01-04T09:06:36.093Z,100120.38
2023-01-04T09:09:02.519Z,100113.81
2023-01-04T09:11:28.933Z,100109.38
2023-01-04T09:14:04.567Z,100121.44
2023-01-04T09:16:33.654Z,100112.28
2023-01-04T09:19:00.158Z,100105.81
2023-01-04T09:21:26.773Z,100093.75
2023-01-04T09:23:53.250Z,100104.75
2023-01-04T09:26:22.275Z,100117.25
2023-01-04T09:28:50.153Z,100102.78
2023-01-04T09:31:20.093Z,100098.91
2023-01-04T09:36:33.346Z,100100.16
2023-01-04T09:38:59.669Z,100104.56
2023-01-04T09:41:31.019Z,100107.38
2023-01-04T09:44:02.318Z,100114.34
2023-01-04T09:46:42.947Z,100118.69
2023-01-04T09:49:21.553Z,100099.09
2023-01-04T09:52:26.351Z,100102.06
2023-01-04T09:55:02.973Z,100091.75
2023-01-04T09:57:53.648Z,100098.72
2023-01-04T10:00:25.995Z,100097.91
2023-01-04T10:03:17.327Z,100098.53
2023-01-04T10:05:43.884Z,100082.28
2023-01-04T10:08:15.410Z,100082.06
2023-01-04T10:11:06.515Z,100072.47
2023-01-04T10:13:56.974Z,100058.34
2023-01-04T10:23:00.590Z,100053.31
2023-01-04T10:25:39.503Z,100054.03
2023-01-04T10:28:41.200Z,100052.16
2023-01-04T10:31:40.024Z,100035.38
2023-01-04T10:34:30.201Z,100037.19
2023-01-04T10:37:11.318Z,100020.59
2023-01-04T10:39:37.885Z,100032.59
2023-01-04T10:42:26.040Z,100031.13
2023-01-04T10:45:33.387Z,100032.72
2023-01-04T10:48:08.241Z,100021.13
2023-01-04T10:50:59.778Z,100040.22
2023-01-04T10:53:55.105Z,100037.38
2023-01-04T10:56:31.232Z,100030.28
2023-01-04T10:59:05.523Z,100030.19
2023-01-04T11:01:40.993Z,100017.81
2023-01-04T11:04:16.745Z,100016.88
2023-01-04T11:07:07.537Z,100019.84
2023-01-04T11:09:47.307Z,100001.78
2023-01-04T11:12:17.767Z,100017.19
2023-01-04T11:14:44.219Z,99989.09
2023-01-04T11:17:12.563Z,99995.97
2023-01-04T11:19:40.161Z,100003.13
2023-01-04T11:22:15.748Z,100007.06
2023-01-04T11:25:07.656Z,100005.38
2023-01-04T11:27:41.797Z,99993.09
2023-01-04T11:30:19.912Z,99990.13
2023-01-04T11:32:55.967Z,99984.97
2023-01-04T11:35:42.853Z,99973.75
2023-01-04T11:38:15.264Z,99965.50
2023-01-04T11:40:53.520Z,99956.63
2023-01-04T11:43:22.254Z,99932.25
2023-01-04T11:45:57.544Z,99948.16
2023-01-04T11:48:35.260Z,99949.84
2023-01-04T11:51:02.185Z,99944.34
2023-01-04T11:53:34.926Z,99941.19
2023-01-04T11:56:29.709Z,99936.75
2023-01-04T11:59:08.209Z,99933.78
2023-01-04T12:01:38.177Z,99922.59
2023-01-04T12:04:11.117Z,99917.94
2023-01-04T12:06:44.882Z,99913.47
2023-01-04T12:09:15.975Z,99908.66
2023-01-04T12:11:52.326Z,99912.72
2023-01-04T12:14:20.488Z,99919.09
2023-01-04T12:17:05.112Z,99925.94
2023-01-04T12:19:31.669Z,99917.06
2023-01-04T12:22:01.026Z,99910.94
2023-01-04T12:24:34.463Z,99896.19
2023-01-04T12:27:01.557Z,99904.59
2023-01-04T12:29:43.578Z,99878.63
2023-01-04T12:32:12.931Z,99891.91
2023-01-04T12:34:42.531Z,99879.34
2023-01-04T12:37:10.945Z,99888.41
2023-01-04T12:39:46.910Z,99875.09
2023-01-04T12:42:19.528Z,99868.84
2023-01-04T12:44:51.710Z,99870.41
2023-01-04T12:47:36.509Z,99862.50
2023-01-04T12:50:12.253Z,99872.94
2023-01-04T12:55:31.930Z,99857.59
2023-01-04T12:57:59.866Z,99856.41
2023-01-04T13:00:51.190Z,99844.53
2023-01-04T13:03:18.169Z,99846.56
2023-01-04T13:06:07.013Z,99834.66
2023-01-04T13:08:44.507Z,99829.88
2023-01-04T13:11:51.470Z,99826.66
2023-01-04T13:14:26.500Z,99826.16
2023-01-04T13:17:15.647Z,99835.41
2023-01-04T13:19:43.833Z,99823.53
2023-01-04T13:22:24.930Z,99818.16
2023-01-04T13:24:57.487Z,99818.38
2023-01-04T13:27:24.495Z,99824.84
2023-01-04T13:29:52.163Z,99822.34
2023-01-04T13:32:25.962Z,99811.16
2023-01-04T13:35:14.569Z,99829.78
2023-01-04T13:37:44.729Z,99816.22
2023-01-04T13:40:17.158Z,99815.97
2023-01-04T13:43:09.316Z,99796.13
2023-01-04T13:46:05.565Z,99788.94
2023-01-04T13:48:37.516Z,99806.47
2023-01-04T13:51:05.451Z,99810.22
2023-01-04T13:53:32.583Z,99802.66
2023-01-04T13:56:03.478Z,99798.19
2023-01-04T13:58:32.762Z,99783.78
2023-01-04T14:01:11.234Z,99783.78
2023-01-04T14:04:01.048Z,99790.19
2023-01-04T14:06:31.588Z,99789.22
2023-01-04T14:09:14.070Z,99775.03
2023-01-04T14:12:05.774Z,99783.56
2023-01-04T14:14:38.644Z,99786.31
2023-01-04T14:17:21.344Z,99791.75
2023-01-04T14:19:56.650Z,99785.34
2023-01-04T14:22:23.021Z,99796.28
2023-01-04T14:25:08.933Z,99790.28
2023-01-04T14:27:41.320Z,99789.84
2023-01-04T14:30:18.468Z,99782.97
2023-01-04T14:32:56.987Z,99788.25
2023-01-04T14:35:24.322Z,99787.34
2023-01-04T14:37:51.813Z,99774.19
2023-01-04T14:40:21.178Z,99788.03
2023-01-04T14:42:47.509Z,99785.38
2023-01-04T14:45:14.280Z,99792.13
2023-01-04T14:47:41.944Z,99767.84
2023-01-04T14:50:08.940Z,99792.63
2023-01-04T14:52:35.254Z,99786.22
2023-01-04T14:55:04.689Z,99782.47
2023-01-04T14:57:32.879Z,99793.44
2023-01-04T14:59:59.236Z,99792.50
2023-01-04T15:02:26.954Z,99794.28
2023-01-04T15:04:53.540Z,99782.88
2023-01-04T15:07:40.383Z,99784.56
2023-01-04T15:10:19.177Z,99773.75
2023-01-04T15:12:45.849Z,99778.41
2023-01-04T15:15:12.195Z,99776.09
2023-01-04T15:17:38.722Z,99787.34
2023-01-04T15:20:05.754Z,99792.91
2023-01-04T15:22:32.056Z,99788.50
2023-01-04T15:24:58.374Z,99783.06
2023-01-04T15:27:30.644Z,99776.75
2023-01-04T15:29:58.638Z,99767.09
2023-01-04T15:32:25.005Z,99772.50
2023-01-04T15:34:51.756Z,99764.94
2023-01-04T15:37:23.969Z,99767.59
2023-01-04T15:39:53.109Z,99752.44
2023-01-04T15:42:40.101Z,99763.59
2023-01-04T15:45:06.976Z,99769.84
2023-01-04T15:47:33.977Z,99766.19
2023-01-04T15:50:00.952Z,99756.16
2023-01-04T15:52:27.318Z,99751.47
2023-01-04T15:54:53.808Z,99748.56
2023-01-04T15:57:20.101Z,99750.75
2023-01-04T15:59:47.784Z,99734.38
2023-01-04T16:02:14.193Z,99749.78
2023-01-04T16:04:40.591Z,99736.81
2023-01-04T16:07:06.948Z,99730.44
2023-01-04T16:09:33.385Z,99715.28
2023-01-04T16:12:18.262Z,99731.50
2023-01-04T16:14:44.619Z,99737.03
2023-01-04T16:17:10.906Z,99719.25
2023-01-04T16:19:37.245Z,99719.50
2023-01-04T16:22:03.543Z,99715.28
2023-01-04T16:25:08.786Z,99707.63
2023-01-04T16:27:16.207Z,99713.75
2023-01-04T16:29:42.537Z,99718.59
2023-01-04T16:32:08.909Z,99725.41
2023-01-04T16:34:35.728Z,99713.72
2023-01-04T16:37:02.076Z,99716.78
2023-01-04T16:39:57.362Z,99715.41
2023-01-04T16:42:14.750Z,99709.16
2023-01-04T16:44:41.313Z,99700.75
2023-01-04T16:47:07.859Z,99707.63
2023-01-04T16:49:34.361Z,99730.81
2023-01-04T16:52:00.739Z,99733.69
2023-01-04T16:54:27.091Z,99718.44
2023-01-04T16:56:56.349Z,99712.19
2023-01-04T16:59:22.741Z,99726.81
2023-01-04T17:01:57.387Z,99725.88
2023-01-04T17:04:24.470Z,99725.75
2023-01-04T17:06:53.025Z,99712.53
2023-01-04T17:09:21.111Z,99736.47
2023-01-04T17:14:44.220Z,99726.16
2023-01-04T17:17:12.311Z,99726.16
2023-01-04T17:19:38.644Z,99723.13
2023-01-04T17:22:05.050Z,99724.47
2023-01-04T17:24:31.393Z,99719.53
2023-01-04T17:26:57.735Z,99729.16
2023-01-04T17:29:24.194Z,99722.28
2023-01-04T17:31:50.626Z,99732.28
2023-01-04T17:34:22.465Z,99722.03
2023-01-04T17:36:50.000Z,99721.81
2023-01-04T17:39:16.674Z,99715.44
2023-01-04T17:41:43.174Z,99722.41
2023-01-04T17:44:10.061Z,99708.22
2023-01-04T17:46:37.784Z,99717.97
2023-01-04T17:49:24.082Z,99729.38
2023-01-04T17:51:54.380Z,99709.69
2023-01-04T17:54:21.129Z,99702.81
2023-01-04T17:56:47.486Z,99693.09
2023-01-04T17:59:13.788Z,99696.91
2023-01-04T18:01:40.667Z,99692.38
2023-01-04T18:04:07.152Z,99691.03
2023-01-04T18:06:35.639Z,99688.97
2023-01-04T18:09:04.450Z,99685.03
2023-01-04T18:11:31.066Z,99698.38
2023-01-04T18:13:57.382Z,99692.13
2023-01-04T18:16:26.591Z,99691.53
2023-01-04T18:18:54.958Z,99703.16
2023-01-04T18:21:28.470Z,99709.06
2023-01-04T18:27:19.368Z,99711.38
2023-01-04T18:29:31.577Z,99711.22
2023-01-04T18:31:58.019Z,99718.78
2023-01-04T18:34:26.285Z,99715.66
2023-01-04T18:36:52.678Z,99727.69
2023-01-04T18:39:19.073Z,99724.31
2023-01-04T18:41:48.432Z,99719.41
2023-01-04T18:47:02.244Z,99702.94
2023-01-04T18:49:30.013Z,99716.88
2023-01-04T18:51:56.375Z,99703.16
2023-01-04T18:54:22.895Z,99717.72
2023-01-04T18:56:49.257Z,99728.19
2023-01-04T18:59:19.005Z,99730.81
2023-01-04T19:01:45.798Z,99723.00
2023-01-04T19:04:13.043Z,99744.06
2023-01-04T19:06:40.625Z,99763.28
2023-01-04T19:09:08.153Z,99747.66
2023-01-04T19:11:35.669Z,99745.97
2023-01-04T19:14:02.950Z,99746.22
2023-01-04T19:16:30.916Z,99747.91
2023-01-04T19:18:59.292Z,99734.81
2023-01-04T19:21:25.715Z,99723.59
2023-01-04T19:23:52.562Z,99741.78
2023-01-04T19:26:19.016Z,99715.44
2023-01-04T19:28:45.385Z,99727.47
2023-01-04T19:31:12.881Z,99718.06
2023-01-04T19:33:39.889Z,99718.78
2023-01-04T19:36:08.396Z,99721.44
2023-01-04T19:38:35.203Z,99746.22
2023-01-04T19:41:02.925Z,99755.22
2023-01-04T19:43:29.471Z,99764.00
2023-01-04T19:45:55.821Z,99779.13
2023-01-04T19:48:23.649Z,99785.78
2023-01-04T19:51:00.825Z,99773.38
2023-01-04T19:53:27.121Z,99776.41
2023-01-04T19:55:56.109Z,99781.44
2023-01-04T19:58:22.426Z,99771.47
2023-01-04T20:00:54.291Z,99748.75
2023-01-04T20:03:25.899Z,99724.81
2023-01-04T20:05:52.439Z,99738.63
2023-01-04T20:08:18.746Z,99734.19
2023-01-04T20:10:45.072Z,99743.78
2023-01-04T20:13:11.413Z,99740.53
2023-01-04T20:15:39.304Z,99738.28
2023-01-04T20:18:13.375Z,99743.44
2023-01-04T20:20:44.542Z,99738.50
2023-01-04T20:23:11.544Z,99722.16
2023-01-04T20:25:43.108Z,99724.09
2023-01-04T20:28:09.765Z,99731.88
2023-01-04T20:30:36.824Z,99737.81
2023-01-04T20:33:05.683Z,99731.31
2023-01-04T20:35:32.354Z,99743.47
2023-01-04T20:37:58.797Z,99738.88
2023-01-04T20:40:26.210Z,99741.03
2023-01-04T20:43:11.246Z,99736.84
2023-01-04T20:45:45.242Z,99731.06
2023-01-04T20:48:12.430Z,99724.06
2023-01-04T20:50:39.238Z,99725.28
2023-01-04T20:53:06.302Z,99739.22
2023-01-04T20:55:32.752Z,99738.38
2023-01-04T20:57:59.185Z,99748.84
2023-01-04T21:00:25.517Z,99752.34
2023-01-04T21:02:52.500Z,99751.13
2023-01-04T21:05:18.990Z,99752.94
2023-01-04T21:07:45.316Z,99751.00
2023-01-04T21:10:11.673Z,99744.50
2023-01-04T21:12:38.628Z,99741.97
2023-01-04T21:15:05.510Z,99745.59
2023-01-04T21:17:32.227Z,99737.31
2023-01-04T21:19:58.520Z,99729.72
2023-01-04T21:22:25.772Z,99726.97
2023-01-04T21:24:52.203Z,99728.03
2023-01-04T21:27:18.542Z,99725.38
2023-01-04T21:29:44.847Z,99724.91
2023-01-04T21:32:11.193Z,99718.53
2023-01-04T21:34:37.567Z,99717.00
2023-01-04T21:37:03.893Z,99710.84
2023-01-04T21:39:30.239Z,99716.72
2023-01-04T21:41:56.604Z,99712.53
2023-01-04T21:44:22.962Z,99699.31
2023-01-04T21:46:49.324Z,99721.91
2023-01-04T21:49:15.750Z,99703.03
2023-01-04T21:51:42.044Z,99704.81
2023-01-04T21:54:08.950Z,99715.19
2023-01-04T21:56:35.306Z,99715.41
2023-01-04T21:59:01.636Z,99719.50
2023-01-04T22:01:34.537Z,99724.31
2023-01-04T22:04:01.776Z,99736.34
2023-01-04T22:06:29.011Z,99713.13
2023-01-04T22:08:55.414Z,99715.19
2023-01-04T22:11:21.757Z,99712.03
2023-01-04T22:13:50.096Z,99714.81
2023-01-04T22:16:17.896Z,99714.44
2023-01-04T22:18:50.988Z,99732.00
2023-01-04T22:21:23.629Z,99729.25
2023-01-04T22:23:51.308Z,99728.75
2023-01-04T22:26:17.639Z,99730.09
2023-01-04T22:28:44.095Z,99720.59
2023-01-04T22:31:12.408Z,99726.72
2023-01-04T22:33:39.659Z,99716.28
2023-01-04T22:36:08.371Z,99724.06
2023-01-04T22:38:35.972Z,99718.78
2023-01-04T22:41:16.033Z,99721.44
2023-01-04T22:43:43.373Z,99713.03
2023-01-04T22:46:18.880Z,99704.81
2023-01-04T22:48:45.607Z,99692.47
2023-01-04T22:51:14.870Z,99696.41
2023-01-04T22:53:41.414Z,99698.34
2023-01-04T22:56:19.025Z,99713.97
2023-01-04T22:58:52.055Z,99706.41
2023-01-04T23:01:20.597Z,99713.72
2023-01-04T23:03:47.269Z,99699.06
2023-01-04T23:06:13.833Z,99694.88
2023-01-04T23:08:40.780Z,99715.38
2023-01-04T23:11:13.895Z,99715.38
2023-01-04T23:13:41.404Z,99702.28
2023-01-04T23:16:11.165Z,99696.28
2023-01-04T23:18:38.288Z,99701.91
2023-01-04T23:21:05.662Z,99693.53
2023-01-04T23:23:32.222Z,99700.00
2023-01-04T23:26:07.747Z,99702.63
2023-01-04T23:28:37.806Z,99688.59
2023-01-04T23:31:05.625Z,99691.91
2023-01-04T23:33:35.855Z,99690.97
2023-01-04T23:36:10.550Z,99689.28
2023-01-04T23:38:37.754Z,99700.19
2023-01-04T23:41:04.862Z,99703.22
2023-01-04T23:43:31.450Z,99705.03
2023-01-04T23:45:57.874Z,99675.84
2023-01-04T23:48:24.245Z,99699.75
2023-01-04T23:50:55.517Z,99681.09
2023-01-04T23:53:22.177Z,99689.88
2023-01-04T23:55:59.166Z,99688.44
2023-01-04T23:58:27.421Z,99705.50
